Svolvær Airport

Airport
ICAO code: 
ENSH
IATA Code: 
SVJ
Summary
ICAO Region: 
EUR
Territory: 
Location: 
Svolvær, Vågan, Nordland
Serving: 
Svolvær
Elevation: 
30 ft
Coordinates: 
Aerial View: 
68° 14' 35.999" N, 14° 40' 9.001" E
Airport CFIT: 
Altimeter Temperature Error Correction
Airport WX: 
Low Level Turbulence
Metar
Observation
ENSH 170450Z 35012KT 9999 VCSH FEW020 SCT035 M01/M05 Q0994 RMK WIND 150FT 34013KT
Station
Svolvaer / Helle
Date/Time
2022-01-17 04:50:00
Wind direction
350°
Wind speed
12 kts
Lowest cloud amount
few clouds
Temperature
-1°C
Dew point
-5°C
Humidity
74%
QNH
994 hPa
Weather condition
in vicinity: showers

Description

Regional airport serving the town of Svolvær in northern Norway.

Climatology

Subpolar Oceanic climate (Köppen climate classification Cfc) - uniform precipitation distribution, temperatures are moderated by the proximity of the ocean and warm currents - cool summers and comparatively mild winters.

Runways

Designator Length Width Surface Rops
1/19 857 0 UNK No/No
Airport map: 
Aerial View: 

Accidents and Serious Incidents at or in the vicinity of ENSH

SKYbrary Partners:

Safety knowledge contributed by: